Time;durP1;ratioP1;P1;durP2;ratioP2;P2;SDS_P1;SDS_P2;PMS_P1;PMS_P2;Temp;Humidity;BMP_temperature;BMP_pressure;BME280_temperature;BME280_humidity;BME280_pressure;Samples;Min_cycle;Max_cycle;Signal;HPM_P1;HPM_P2
2021/12/18 00:00:00;;;;;;;77.22;38.75;;;;;;;;;;5027766;28;20113;-76
2021/12/18 00:02:26;;;;;;;71.53;34.00;;;;;;;;;;5027505;28;20037;-76
2021/12/18 00:04:52;;;;;;;77.07;37.78;;;;;;;;;;5028455;28;20052;-77
2021/12/18 00:07:18;;;;;;;84.20;41.85;;;;;;;;;;5034519;28;20037;-76
2021/12/18 00:09:46;;;;;;;71.97;36.25;;;;;;;;;;5046682;28;20025;-76
2021/12/18 00:12:12;;;;;;;80.22;36.42;;;;;;;;;;5054851;28;20131;-76
2021/12/18 00:14:38;;;;;;;75.38;36.65;;;;;;;;;;5032822;28;20113;-77
2021/12/18 00:17:04;;;;;;;64.72;31.70;;;;;;;;;;5038594;28;20124;-76
2021/12/18 00:19:30;;;;;;;71.43;34.55;;;;;;;;;;5047976;28;20033;-76
2021/12/18 00:21:56;;;;;;;66.55;31.83;;;;;;;;;;5048243;28;20063;-76
2021/12/18 00:24:24;;;;;;;70.20;32.70;;;;;;;;;;5046981;28;20033;-77
2021/12/18 00:26:50;;;;;;;65.90;34.65;;;;;;;;;;5048326;28;20029;-76
2021/12/18 00:29:16;;;;;;;67.22;31.20;;;;;;;;;;5045919;28;20843;-76
2021/12/18 00:31:42;;;;;;;68.60;33.78;;;;;;;;;;5047953;28;20037;-76
2021/12/18 00:34:08;;;;;;;66.50;30.52;;;;;;;;;;5046171;28;20625;-76
2021/12/18 00:36:34;;;;;;;68.03;30.58;;;;;;;;;;5046625;28;20033;-76
2021/12/18 00:39:00;;;;;;;71.38;33.97;;;;;;;;;;5046008;28;20040;-76
2021/12/18 00:41:37;;;;;;;67.28;31.70;;;;;;;;;;5047920;28;20128;-76
2021/12/18 00:44:04;;;;;;;63.92;32.15;;;;;;;;;;5049211;28;20027;-76
2021/12/18 00:46:34;;;;;;;70.55;33.20;;;;;;;;;;5051179;28;20163;-76
2021/12/18 00:49:01;;;;;;;65.82;31.88;;;;;;;;;;5051049;28;20060;-76
2021/12/18 00:51:27;;;;;;;67.22;32.40;;;;;;;;;;5051138;28;20053;-76
2021/12/18 00:53:53;;;;;;;66.32;30.20;;;;;;;;;;5045320;28;20048;-76
2021/12/18 00:56:19;;;;;;;66.70;31.75;;;;;;;;;;5031826;28;20053;-76
2021/12/18 00:58:47;;;;;;;73.75;34.78;;;;;;;;;;5033989;28;20029;-76
2021/12/18 01:01:13;;;;;;;75.32;34.67;;;;;;;;;;5049869;28;20526;-76
2021/12/18 01:03:40;;;;;;;79.38;34.13;;;;;;;;;;5051095;28;20037;-76
2021/12/18 01:06:07;;;;;;;71.90;31.40;;;;;;;;;;5050008;28;20036;-76
2021/12/18 01:08:33;;;;;;;77.22;34.78;;;;;;;;;;5043330;28;20677;-76
2021/12/18 01:13:30;;;;;;;68.85;32.20;;;;;;;;;;5051466;28;20048;-76
2021/12/18 01:16:05;;;;;;;70.55;31.80;;;;;;;;;;5051728;28;20705;-76
2021/12/18 01:24:02;;;;;;;71.03;30.73;;;;;;;;;;5051239;28;20040;-76
2021/12/18 01:26:28;;;;;;;68.90;30.75;;;;;;;;;;5033435;28;20079;-77
2021/12/18 01:28:54;;;;;;;65.82;30.38;;;;;;;;;;5048294;28;20052;-77
2021/12/18 01:31:20;;;;;;;69.32;30.63;;;;;;;;;;5041659;28;20068;-76
2021/12/18 01:33:46;;;;;;;71.30;30.40;;;;;;;;;;5057869;28;20020;-76
2021/12/18 01:36:12;;;;;;;68.22;30.25;;;;;;;;;;5038400;28;20041;-76
2021/12/18 01:38:38;;;;;;;74.95;34.15;;;;;;;;;;5046247;28;20480;-76
2021/12/18 01:41:04;;;;;;;64.40;29.27;;;;;;;;;;5050544;28;20459;-76
2021/12/18 01:52:18;;;;;;;68.20;28.17;;;;;;;;;;4999616;28;20082;-76
2021/12/18 01:54:45;;;;;;;66.30;27.15;;;;;;;;;;5049987;28;20510;-76
2021/12/18 01:57:11;;;;;;;59.92;26.27;;;;;;;;;;5049718;28;20072;-76
2021/12/18 01:59:39;;;;;;;64.72;29.10;;;;;;;;;;5050456;28;20100;-76
2021/12/18 02:02:05;;;;;;;63.40;29.42;;;;;;;;;;5056547;28;20045;-76
2021/12/18 02:04:31;;;;;;;61.45;27.42;;;;;;;;;;5065659;28;20119;-76
2021/12/18 02:07:01;;;;;;;64.28;28.23;;;;;;;;;;5055622;28;20051;-76
2021/12/18 02:09:37;;;;;;;68.22;28.67;;;;;;;;;;5050264;28;20867;-76
2021/12/18 02:12:03;;;;;;;58.50;27.50;;;;;;;;;;5049677;28;20052;-76
2021/12/18 02:19:34;;;;;;;59.60;25.63;;;;;;;;;;5050151;28;20468;-76
2021/12/18 02:20:39;;;;;;;57.40;25.27;;;;;;;;;;5050512;28;20039;-77
2021/12/18 02:23:06;;;;;;;58.40;26.40;;;;;;;;;;5049655;28;20040;-76
2021/12/18 02:25:34;;;;;;;46.75;23.63;;;;;;;;;;5041567;28;20040;-76
2021/12/18 02:28:00;;;;;;;50.65;23.25;;;;;;;;;;5050515;28;20033;-76
2021/12/18 02:30:26;;;;;;;50.22;24.02;;;;;;;;;;5049770;28;20039;-76
2021/12/18 02:32:52;;;;;;;56.50;23.88;;;;;;;;;;5049772;28;20075;-76
2021/12/18 02:35:29;;;;;;;52.92;22.80;;;;;;;;;;5048258;28;20104;-76
2021/12/18 02:38:15;;;;;;;52.88;23.58;;;;;;;;;;5043182;28;20033;-76
2021/12/18 02:43:13;;;;;;;48.22;21.40;;;;;;;;;;5049956;28;20499;-76
2021/12/18 02:45:39;;;;;;;48.05;21.27;;;;;;;;;;5044315;28;20137;-77
2021/12/18 02:48:05;;;;;;;45.03;22.45;;;;;;;;;;5046278;28;20079;-76
2021/12/18 02:50:31;;;;;;;47.45;23.23;;;;;;;;;;5049886;28;20037;-76
2021/12/18 02:52:57;;;;;;;48.53;22.98;;;;;;;;;;5050102;28;20036;-76
2021/12/18 02:55:23;;;;;;;45.10;23.20;;;;;;;;;;5049143;28;20025;-76
2021/12/18 02:57:49;;;;;;;44.63;22.10;;;;;;;;;;5037485;28;20029;-76
2021/12/18 03:00:17;;;;;;;42.95;20.88;;;;;;;;;;5048950;28;20371;-76
2021/12/18 03:02:45;;;;;;;40.13;20.60;;;;;;;;;;5048998;28;20045;-76
2021/12/18 03:05:19;;;;;;;47.58;21.65;;;;;;;;;;5049215;28;20029;-76
2021/12/18 03:07:46;;;;;;;37.80;18.63;;;;;;;;;;5035870;28;20029;-76
2021/12/18 03:25:45;;;;;;;43.10;21.20;;;;;;;;;;5048761;28;20072;-76
2021/12/18 03:28:13;;;;;;;40.63;18.88;;;;;;;;;;5048406;28;20041;-76
2021/12/18 03:30:39;;;;;;;38.65;18.15;;;;;;;;;;5048785;28;20462;-76
2021/12/18 03:33:05;;;;;;;38.45;19.45;;;;;;;;;;5048293;28;20608;-76
2021/12/18 03:35:31;;;;;;;35.47;18.10;;;;;;;;;;5049168;28;20033;-76
2021/12/18 03:37:57;;;;;;;42.72;19.10;;;;;;;;;;5048844;28;20466;-76
2021/12/18 03:40:24;;;;;;;41.28;20.35;;;;;;;;;;5047109;28;20560;-76
2021/12/18 03:42:50;;;;;;;41.33;19.88;;;;;;;;;;5040743;28;20056;-76
2021/12/18 03:45:17;;;;;;;39.22;19.77;;;;;;;;;;5032852;28;20692;-76
2021/12/18 03:47:43;;;;;;;34.80;17.60;;;;;;;;;;5042904;28;20038;-76
2021/12/18 03:50:10;;;;;;;40.28;20.67;;;;;;;;;;5048009;28;20063;-76
2021/12/18 03:52:36;;;;;;;36.08;18.67;;;;;;;;;;5048067;28;20043;-76
2021/12/18 03:55:03;;;;;;;41.28;19.33;;;;;;;;;;5048929;28;20034;-76
2021/12/18 03:57:29;;;;;;;39.63;19.23;;;;;;;;;;5047585;28;20040;-76
2021/12/18 03:59:56;;;;;;;42.25;19.17;;;;;;;;;;5050995;28;20029;-76
2021/12/18 04:02:22;;;;;;;35.67;17.73;;;;;;;;;;5047933;28;20059;-76
2021/12/18 04:04:48;;;;;;;37.85;17.13;;;;;;;;;;5048438;28;20039;-76
2021/12/18 04:07:15;;;;;;;38.97;20.23;;;;;;;;;;5048564;28;20033;-76
2021/12/18 04:09:41;;;;;;;41.20;20.70;;;;;;;;;;5047905;28;20028;-76
2021/12/18 04:12:08;;;;;;;41.30;21.70;;;;;;;;;;5046485;28;20431;-76
2021/12/18 04:14:34;;;;;;;46.05;20.90;;;;;;;;;;5042420;28;20460;-76
2021/12/18 04:17:00;;;;;;;41.20;18.85;;;;;;;;;;5048984;28;20033;-76
2021/12/18 04:19:26;;;;;;;42.88;22.23;;;;;;;;;;5058392;28;20021;-76
2021/12/18 04:21:52;;;;;;;38.60;20.23;;;;;;;;;;5052318;28;20072;-76
2021/12/18 04:24:18;;;;;;;41.13;19.70;;;;;;;;;;5047392;28;20072;-76
2021/12/18 04:26:44;;;;;;;38.95;19.60;;;;;;;;;;5047215;28;20487;-76
2021/12/18 04:29:10;;;;;;;37.90;18.27;;;;;;;;;;5049763;28;20087;-76
2021/12/18 04:31:37;;;;;;;35.10;18.38;;;;;;;;;;5059280;28;20476;-76
2021/12/18 04:34:03;;;;;;;34.05;17.45;;;;;;;;;;5066673;28;20826;-76
2021/12/18 04:36:29;;;;;;;36.03;18.67;;;;;;;;;;5052374;28;20044;-76
2021/12/18 04:38:55;;;;;;;45.75;23.02;;;;;;;;;;5034203;28;20040;-76
2021/12/18 04:41:37;;;;;;;36.85;18.90;;;;;;;;;;5050139;28;20041;-76
2021/12/18 04:44:04;;;;;;;36.97;19.10;;;;;;;;;;5050252;28;20489;-76
2021/12/18 04:46:30;;;;;;;65.43;29.05;;;;;;;;;;5043026;28;20037;-76
2021/12/18 04:48:56;;;;;;;45.10;20.13;;;;;;;;;;5050059;28;20471;-76
2021/12/18 04:51:22;;;;;;;46.88;22.70;;;;;;;;;;5043911;28;20443;-76
2021/12/18 04:53:48;;;;;;;38.92;19.40;;;;;;;;;;5051700;28;20099;-76
2021/12/18 04:56:14;;;;;;;56.97;25.45;;;;;;;;;;5049567;28;20083;-76
2021/12/18 04:58:40;;;;;;;65.72;28.60;;;;;;;;;;5048050;28;20025;-76
2021/12/18 05:01:06;;;;;;;50.75;22.08;;;;;;;;;;5050829;28;20037;-76
2021/12/18 05:03:32;;;;;;;57.28;27.13;;;;;;;;;;5051007;28;20747;-76
2021/12/18 05:06:00;;;;;;;37.20;19.63;;;;;;;;;;5041761;28;20044;-76
2021/12/18 05:08:27;;;;;;;51.13;24.92;;;;;;;;;;5046635;28;20112;-76
2021/12/18 05:10:53;;;;;;;50.15;24.70;;;;;;;;;;5051080;28;20032;-76
2021/12/18 05:13:19;;;;;;;68.25;33.97;;;;;;;;;;5049532;28;20032;-76
2021/12/18 05:15:45;;;;;;;41.60;22.05;;;;;;;;;;5050536;28;20785;-76
2021/12/18 05:18:11;;;;;;;37.72;18.67;;;;;;;;;;5051334;28;20029;-76
2021/12/18 05:20:37;;;;;;;34.55;18.40;;;;;;;;;;5050970;28;20134;-76
2021/12/18 05:23:03;;;;;;;36.20;17.05;;;;;;;;;;5051472;28;20037;-76
2021/12/18 05:25:29;;;;;;;36.55;16.55;;;;;;;;;;5050271;28;20067;-76
2021/12/18 05:27:55;;;;;;;35.35;17.10;;;;;;;;;;5051154;28;20049;-76
2021/12/18 05:30:21;;;;;;;33.50;16.67;;;;;;;;;;5050519;28;20522;-76
2021/12/18 05:32:47;;;;;;;39.00;19.02;;;;;;;;;;5050741;28;20475;-76
2021/12/18 05:35:17;;;;;;;36.67;17.88;;;;;;;;;;5037419;28;20487;-76
2021/12/18 05:37:52;;;;;;;34.13;18.40;;;;;;;;;;5030782;28;20040;-76
2021/12/18 05:40:22;;;;;;;42.75;18.77;;;;;;;;;;5029779;28;20567;-76
2021/12/18 05:42:48;;;;;;;38.25;19.45;;;;;;;;;;5047030;28;20069;-76
2021/12/18 05:45:14;;;;;;;31.23;16.70;;;;;;;;;;5031298;28;20039;-76
2021/12/18 05:47:42;;;;;;;32.88;17.60;;;;;;;;;;5044352;28;20032;-76
2021/12/18 05:50:09;;;;;;;35.08;17.17;;;;;;;;;;5052357;28;20136;-76
2021/12/18 05:52:35;;;;;;;36.15;17.48;;;;;;;;;;5049835;28;20091;-76
2021/12/18 05:55:01;;;;;;;32.53;17.35;;;;;;;;;;5049133;28;20094;-76
2021/12/18 05:57:28;;;;;;;32.53;16.30;;;;;;;;;;5044217;28;20034;-76
2021/12/18 05:59:54;;;;;;;36.58;17.70;;;;;;;;;;5029226;28;20072;-76
2021/12/18 06:02:19;;;;;;;33.75;18.25;;;;;;;;;;5033870;28;20071;-76
2021/12/18 06:04:46;;;;;;;31.10;17.00;;;;;;;;;;5061479;28;20036;-76
2021/12/18 06:09:57;;;;;;;33.28;17.80;;;;;;;;;;5050368;28;20044;-76
2021/12/18 06:12:24;;;;;;;38.53;18.73;;;;;;;;;;5049203;28;20033;-76
2021/12/18 06:14:50;;;;;;;33.85;18.15;;;;;;;;;;5047543;28;20053;-76
2021/12/18 06:17:16;;;;;;;36.83;17.77;;;;;;;;;;5054640;28;20032;-76
2021/12/18 06:19:42;;;;;;;32.53;17.35;;;;;;;;;;5047669;28;20086;-76
2021/12/18 06:22:08;;;;;;;35.47;18.45;;;;;;;;;;5057412;28;20427;-75
2021/12/18 06:24:34;;;;;;;33.25;17.48;;;;;;;;;;5068178;28;20040;-76
2021/12/18 06:27:00;;;;;;;33.85;16.17;;;;;;;;;;5050457;28;20033;-76
2021/12/18 06:29:26;;;;;;;34.28;17.55;;;;;;;;;;5050412;28;20044;-76
2021/12/18 06:31:52;;;;;;;35.75;17.63;;;;;;;;;;5042864;28;20041;-76
2021/12/18 06:34:18;;;;;;;34.10;16.38;;;;;;;;;;5064898;28;20068;-76
2021/12/18 06:36:44;;;;;;;31.23;16.52;;;;;;;;;;5051247;28;20060;-76
2021/12/18 06:39:10;;;;;;;33.78;17.45;;;;;;;;;;5054618;28;20036;-76
2021/12/18 06:41:36;;;;;;;35.00;17.33;;;;;;;;;;5062081;28;20036;-76
2021/12/18 06:44:03;;;;;;;34.13;18.27;;;;;;;;;;5049049;28;20044;-76
2021/12/18 06:46:29;;;;;;;35.50;18.48;;;;;;;;;;5047215;28;20112;-76
2021/12/18 06:48:55;;;;;;;34.95;18.48;;;;;;;;;;5047666;28;20432;-76
2021/12/18 06:51:21;;;;;;;35.88;18.45;;;;;;;;;;5046096;28;20053;-76
2021/12/18 06:53:47;;;;;;;33.70;18.15;;;;;;;;;;5039926;28;20124;-76
2021/12/18 06:56:13;;;;;;;33.65;16.67;;;;;;;;;;5049848;28;20029;-83
2021/12/18 06:58:40;;;;;;;33.08;15.65;;;;;;;;;;5052387;28;20024;-82
2021/12/18 07:01:06;;;;;;;29.63;15.88;;;;;;;;;;5085353;28;20029;-81
2021/12/18 07:03:33;;;;;;;35.63;18.10;;;;;;;;;;5045748;28;20495;-81
2021/12/18 07:06:00;;;;;;;35.15;17.67;;;;;;;;;;5051976;28;20029;-81
2021/12/18 07:08:26;;;;;;;35.55;17.90;;;;;;;;;;5049236;28;20036;-81
2021/12/18 07:10:52;;;;;;;36.60;18.50;;;;;;;;;;5048223;28;20037;-81
2021/12/18 07:13:18;;;;;;;33.47;16.17;;;;;;;;;;5049506;28;20066;-83
2021/12/18 07:15:44;;;;;;;32.22;17.48;;;;;;;;;;5047992;28;20021;-82
2021/12/18 07:18:10;;;;;;;32.22;16.17;;;;;;;;;;5049841;28;20040;-81
2021/12/18 07:20:36;;;;;;;33.88;16.33;;;;;;;;;;5050292;28;20026;-80
2021/12/18 07:23:02;;;;;;;34.42;17.95;;;;;;;;;;5040290;28;20046;-81
2021/12/18 07:25:28;;;;;;;37.60;18.40;;;;;;;;;;5049641;28;20043;-82
2021/12/18 07:27:55;;;;;;;33.47;17.17;;;;;;;;;;5046693;28;20060;-82
2021/12/18 07:30:21;;;;;;;37.60;17.67;;;;;;;;;;5047345;28;20063;-82
2021/12/18 07:32:47;;;;;;;32.25;16.88;;;;;;;;;;5049347;28;20033;-82
2021/12/18 07:35:13;;;;;;;34.35;17.25;;;;;;;;;;5047296;28;20807;-82
2021/12/18 07:37:39;;;;;;;36.25;18.20;;;;;;;;;;5047516;28;20045;-83
2021/12/18 07:40:07;;;;;;;35.47;17.35;;;;;;;;;;5052934;28;20022;-81
2021/12/18 07:42:33;;;;;;;36.25;17.02;;;;;;;;;;5048001;28;20047;-83
2021/12/18 07:44:59;;;;;;;34.35;17.42;;;;;;;;;;5047482;28;20051;-82
2021/12/18 07:47:26;;;;;;;34.35;17.95;;;;;;;;;;5054684;28;20033;-83
2021/12/18 07:49:52;;;;;;;35.05;17.33;;;;;;;;;;5048522;28;20060;-82
2021/12/18 07:52:18;;;;;;;32.65;16.75;;;;;;;;;;5044502;28;20758;-83
2021/12/18 07:54:44;;;;;;;34.65;17.20;;;;;;;;;;5051176;28;20231;-82
2021/12/18 07:57:10;;;;;;;35.88;17.90;;;;;;;;;;5048731;28;20799;-83
2021/12/18 07:59:37;;;;;;;31.52;16.00;;;;;;;;;;5049042;28;20025;-83
2021/12/18 08:02:04;;;;;;;31.77;16.50;;;;;;;;;;5050630;28;20068;-83
2021/12/18 08:04:30;;;;;;;33.38;16.35;;;;;;;;;;5047517;28;20061;-83
2021/12/18 08:06:56;;;;;;;33.03;17.27;;;;;;;;;;5048038;28;20479;-83
2021/12/18 08:09:22;;;;;;;32.92;16.52;;;;;;;;;;5062502;28;20055;-84
2021/12/18 08:11:48;;;;;;;31.38;16.13;;;;;;;;;;5044504;28;20041;-83
2021/12/18 08:14:15;;;;;;;31.83;16.70;;;;;;;;;;5052590;28;20025;-83
2021/12/18 08:16:41;;;;;;;31.92;15.00;;;;;;;;;;5048380;28;20039;-83
2021/12/18 08:19:07;;;;;;;34.70;16.40;;;;;;;;;;5036225;28;20022;-83
2021/12/18 08:21:33;;;;;;;32.83;16.38;;;;;;;;;;5046836;28;20044;-82
2021/12/18 08:23:59;;;;;;;27.25;15.20;;;;;;;;;;5047406;28;20132;-83
2021/12/18 08:26:25;;;;;;;30.15;16.42;;;;;;;;;;5047344;28;20135;-83
2021/12/18 08:28:51;;;;;;;36.55;15.35;;;;;;;;;;5041362;28;20021;-83
2021/12/18 08:31:17;;;;;;;30.08;16.23;;;;;;;;;;5047700;28;20078;-83
2021/12/18 08:33:43;;;;;;;30.65;16.45;;;;;;;;;;5049080;28;20025;-83
2021/12/18 08:36:09;;;;;;;32.03;17.38;;;;;;;;;;5048332;28;20078;-83
2021/12/18 08:38:36;;;;;;;34.75;17.33;;;;;;;;;;5049646;28;20021;-83
2021/12/18 08:41:02;;;;;;;33.10;17.30;;;;;;;;;;5036444;28;20073;-83
2021/12/18 08:43:28;;;;;;;36.60;15.95;;;;;;;;;;5038325;28;20790;-83
2021/12/18 08:45:55;;;;;;;31.88;16.23;;;;;;;;;;5047057;28;20064;-83
2021/12/18 08:48:21;;;;;;;30.10;14.98;;;;;;;;;;5045748;28;20044;-83
2021/12/18 08:50:48;;;;;;;28.75;14.68;;;;;;;;;;5040461;28;20129;-83
2021/12/18 08:53:14;;;;;;;29.73;15.77;;;;;;;;;;5043404;28;20026;-83
2021/12/18 08:55:40;;;;;;;33.17;15.68;;;;;;;;;;5042827;28;20129;-83
2021/12/18 08:58:06;;;;;;;30.10;15.82;;;;;;;;;;5060855;28;20029;-83
2021/12/18 09:00:33;;;;;;;32.40;17.48;;;;;;;;;;5048809;28;20041;-82
2021/12/18 09:03:00;;;;;;;32.67;17.60;;;;;;;;;;5043485;28;20041;-81
2021/12/18 09:05:27;;;;;;;32.05;17.33;;;;;;;;;;5030223;28;20452;-82
2021/12/18 09:07:53;;;;;;;33.78;17.30;;;;;;;;;;5043817;28;20041;-82
2021/12/18 09:10:20;;;;;;;36.70;17.10;;;;;;;;;;5060231;28;20037;-83
2021/12/18 09:12:46;;;;;;;30.38;16.42;;;;;;;;;;5042131;28;20585;-82
2021/12/18 09:15:13;;;;;;;32.22;18.20;;;;;;;;;;5059355;28;20053;-83
2021/12/18 09:17:39;;;;;;;30.52;16.10;;;;;;;;;;5035411;28;20044;-82
2021/12/18 09:20:06;;;;;;;40.45;19.88;;;;;;;;;;5042106;28;20112;-83
2021/12/18 09:22:32;;;;;;;35.33;18.08;;;;;;;;;;5040766;28;20069;-82
2021/12/18 09:24:59;;;;;;;37.97;18.20;;;;;;;;;;5050881;28;20626;-82
2021/12/18 09:27:25;;;;;;;33.80;17.42;;;;;;;;;;5041647;28;20037;-82
2021/12/18 09:29:51;;;;;;;33.85;17.02;;;;;;;;;;5074934;28;20040;-83
2021/12/18 09:32:17;;;;;;;38.95;17.92;;;;;;;;;;5066777;28;20537;-82
2021/12/18 09:34:43;;;;;;;36.90;20.42;;;;;;;;;;5050976;28;20514;-83
2021/12/18 09:37:10;;;;;;;35.00;17.90;;;;;;;;;;5050212;28;20025;-83
2021/12/18 09:39:36;;;;;;;35.40;17.95;;;;;;;;;;5052253;28;20141;-83
2021/12/18 09:42:02;;;;;;;34.30;17.77;;;;;;;;;;5054344;28;20033;-83
2021/12/18 09:44:30;;;;;;;36.38;17.05;;;;;;;;;;5050780;28;20739;-83
2021/12/18 09:46:57;;;;;;;33.03;16.52;;;;;;;;;;5052434;28;20028;-83
2021/12/18 09:49:23;;;;;;;36.28;17.58;;;;;;;;;;5051137;28;20043;-83
2021/12/18 09:51:50;;;;;;;32.85;17.70;;;;;;;;;;5051569;28;20029;-82
2021/12/18 09:54:16;;;;;;;34.88;18.05;;;;;;;;;;5052627;28;20040;-82
2021/12/18 09:56:43;;;;;;;42.00;19.48;;;;;;;;;;5051354;28;20816;-83
2021/12/18 09:59:09;;;;;;;31.25;17.42;;;;;;;;;;5050921;28;20039;-82
2021/12/18 10:01:35;;;;;;;43.33;22.35;;;;;;;;;;5046894;28;20037;-83
2021/12/18 10:04:02;;;;;;;40.67;17.90;;;;;;;;;;5050644;28;20044;-82
2021/12/18 10:06:28;;;;;;;31.05;16.88;;;;;;;;;;5051620;28;20095;-83
2021/12/18 10:08:54;;;;;;;33.65;17.73;;;;;;;;;;5056822;28;20029;-83
2021/12/18 10:11:20;;;;;;;40.53;19.70;;;;;;;;;;5036439;28;20072;-82
2021/12/18 10:13:50;;;;;;;40.00;18.20;;;;;;;;;;5038390;28;20883;-84
2021/12/18 10:16:16;;;;;;;42.22;21.58;;;;;;;;;;5073776;28;20025;-83
2021/12/18 10:18:42;;;;;;;37.08;18.70;;;;;;;;;;5051226;28;20036;-83
2021/12/18 10:21:10;;;;;;;34.22;17.75;;;;;;;;;;5049146;28;20055;-82
2021/12/18 10:23:36;;;;;;;34.38;18.65;;;;;;;;;;5068492;28;20025;-83
2021/12/18 10:26:02;;;;;;;36.42;18.75;;;;;;;;;;5078769;28;20095;-83
2021/12/18 10:28:41;;;;;;;38.38;19.58;;;;;;;;;;5050966;28;20108;-82
2021/12/18 10:31:07;;;;;;;35.97;19.33;;;;;;;;;;5065323;28;20471;-82
2021/12/18 10:33:35;;;;;;;37.63;19.42;;;;;;;;;;5043441;28;20033;-83
2021/12/18 10:36:01;;;;;;;39.08;19.80;;;;;;;;;;5049172;28;20032;-82
2021/12/18 10:38:40;;;;;;;35.88;20.23;;;;;;;;;;5050396;28;20033;-83
2021/12/18 10:41:22;;;;;;;36.42;20.40;;;;;;;;;;5065640;28;20128;-83
2021/12/18 10:43:54;;;;;;;35.40;18.65;;;;;;;;;;5050303;28;20078;-83
2021/12/18 10:46:21;;;;;;;37.55;18.80;;;;;;;;;;5057337;28;20036;-82
2021/12/18 10:48:57;;;;;;;51.42;21.40;;;;;;;;;;5076854;28;20113;-82
2021/12/18 10:51:24;;;;;;;48.35;22.77;;;;;;;;;;5030372;28;20050;-82
2021/12/18 10:53:50;;;;;;;36.00;18.92;;;;;;;;;;5036561;28;20096;-83
2021/12/18 10:56:16;;;;;;;38.05;19.33;;;;;;;;;;5047560;28;20037;-83
2021/12/18 10:58:42;;;;;;;45.28;20.27;;;;;;;;;;5066767;28;20047;-83
2021/12/18 11:01:09;;;;;;;38.00;19.58;;;;;;;;;;5044923;28;20041;-82
2021/12/18 11:03:35;;;;;;;39.85;22.83;;;;;;;;;;5050298;28;20112;-83
2021/12/18 11:06:05;;;;;;;50.03;23.70;;;;;;;;;;5046155;28;20045;-83
2021/12/18 11:08:33;;;;;;;45.00;25.65;;;;;;;;;;5050265;28;20032;-82
2021/12/18 11:13:55;;;;;;;38.92;18.05;;;;;;;;;;5010803;28;20038;-83
2021/12/18 11:16:22;;;;;;;37.95;18.98;;;;;;;;;;5059750;28;20063;-82
2021/12/18 11:18:48;;;;;;;40.35;20.95;;;;;;;;;;5049922;28;20096;-83
2021/12/18 11:21:15;;;;;;;37.17;20.98;;;;;;;;;;5063828;28;20108;-83
2021/12/18 11:23:47;;;;;;;38.17;20.27;;;;;;;;;;5049279;28;20029;-83
2021/12/18 11:26:14;;;;;;;41.45;20.90;;;;;;;;;;5048346;28;20072;-83
2021/12/18 11:28:43;;;;;;;69.10;31.65;;;;;;;;;;5064166;28;20033;-83
2021/12/18 11:31:09;;;;;;;39.53;20.17;;;;;;;;;;5038155;28;20037;-81
2021/12/18 11:33:35;;;;;;;42.28;22.67;;;;;;;;;;5049190;28;20868;-81
2021/12/18 11:36:03;;;;;;;39.00;20.42;;;;;;;;;;5054693;28;20112;-80
2021/12/18 11:38:31;;;;;;;42.30;22.42;;;;;;;;;;5046851;28;20451;-80
2021/12/18 11:40:57;;;;;;;46.90;22.58;;;;;;;;;;5053490;28;20086;-79
2021/12/18 11:43:41;;;;;;;46.45;23.98;;;;;;;;;;5062822;28;20033;-79
2021/12/18 11:46:26;;;;;;;61.17;28.70;;;;;;;;;;5055800;28;20032;-79
2021/12/18 11:48:55;;;;;;;47.05;22.30;;;;;;;;;;5062346;28;20044;-80
2021/12/18 11:51:21;;;;;;;42.95;21.55;;;;;;;;;;5049163;28;20119;-79
2021/12/18 11:53:47;;;;;;;43.70;21.95;;;;;;;;;;5049132;28;20033;-80
2021/12/18 11:56:14;;;;;;;47.78;23.83;;;;;;;;;;5048659;28;20410;-80
2021/12/18 11:58:44;;;;;;;41.05;22.42;;;;;;;;;;5035290;28;20055;-80
2021/12/18 12:01:13;;;;;;;40.78;22.40;;;;;;;;;;5050564;28;20064;-80
2021/12/18 12:03:42;;;;;;;41.58;23.20;;;;;;;;;;5044069;28;20083;-81
2021/12/18 12:06:26;;;;;;;40.90;21.60;;;;;;;;;;5044728;28;20033;-81
2021/12/18 12:09:14;;;;;;;49.33;24.40;;;;;;;;;;5050407;28;20055;-80
2021/12/18 12:11:58;;;;;;;53.13;26.67;;;;;;;;;;5054917;28;20033;-80
2021/12/18 12:14:26;;;;;;;42.17;21.48;;;;;;;;;;5043484;28;20041;-81
2021/12/18 12:16:52;;;;;;;49.65;24.83;;;;;;;;;;5051497;28;20025;-80
2021/12/18 12:19:18;;;;;;;43.35;24.13;;;;;;;;;;5054616;28;20050;-80
2021/12/18 12:21:50;;;;;;;57.60;28.20;;;;;;;;;;5053418;28;20021;-80
2021/12/18 12:24:18;;;;;;;48.38;24.02;;;;;;;;;;5046206;28;20565;-80
2021/12/18 12:26:44;;;;;;;50.45;25.05;;;;;;;;;;5050996;28;20040;-80
2021/12/18 12:29:13;;;;;;;47.58;25.20;;;;;;;;;;5045378;28;20029;-81
2021/12/18 12:31:52;;;;;;;49.33;23.60;;;;;;;;;;5040403;28;20074;-81
2021/12/18 12:34:22;;;;;;;45.40;24.00;;;;;;;;;;5048099;28;20480;-80
2021/12/18 12:36:49;;;;;;;39.92;22.73;;;;;;;;;;5045446;28;20028;-81
2021/12/18 12:39:16;;;;;;;37.30;20.55;;;;;;;;;;5046973;28;20044;-80
2021/12/18 12:41:48;;;;;;;40.00;21.20;;;;;;;;;;5053454;28;20605;-80
2021/12/18 12:44:28;;;;;;;41.22;22.58;;;;;;;;;;5047342;28;20036;-80
2021/12/18 12:47:13;;;;;;;39.50;22.02;;;;;;;;;;5047220;28;20033;-80
2021/12/18 12:49:40;;;;;;;41.85;22.83;;;;;;;;;;5051291;28;20080;-80
2021/12/18 12:52:08;;;;;;;42.05;22.35;;;;;;;;;;5053773;28;20807;-80
2021/12/18 12:54:49;;;;;;;41.25;22.40;;;;;;;;;;5050086;28;20033;-80
2021/12/18 12:57:28;;;;;;;45.60;25.10;;;;;;;;;;5057765;28;20036;-80
2021/12/18 13:00:06;;;;;;;43.85;23.77;;;;;;;;;;5053644;28;20024;-80
2021/12/18 13:02:34;;;;;;;44.33;23.95;;;;;;;;;;5045607;28;20036;-80
2021/12/18 13:05:10;;;;;;;48.05;26.10;;;;;;;;;;5072961;28;20036;-80
2021/12/18 13:07:44;;;;;;;44.75;24.02;;;;;;;;;;5049016;28;20680;-80
2021/12/18 13:10:10;;;;;;;44.33;23.58;;;;;;;;;;5052588;28;20032;-80
2021/12/18 13:12:52;;;;;;;48.53;23.67;;;;;;;;;;5050670;28;20956;-79
2021/12/18 13:15:18;;;;;;;43.20;25.70;;;;;;;;;;5061828;28;20057;-80
2021/12/18 13:17:44;;;;;;;45.90;24.67;;;;;;;;;;5052139;28;20029;-80
2021/12/18 13:20:10;;;;;;;49.20;24.13;;;;;;;;;;5052701;28;20033;-80
2021/12/18 13:22:37;;;;;;;51.45;27.45;;;;;;;;;;5052337;28;20033;-80
2021/12/18 13:25:06;;;;;;;49.88;29.77;;;;;;;;;;5052591;28;20041;-80
2021/12/18 13:27:32;;;;;;;40.22;22.60;;;;;;;;;;5052249;28;20041;-80
2021/12/18 13:30:17;;;;;;;44.13;24.08;;;;;;;;;;5053120;28;20452;-80
2021/12/18 13:32:55;;;;;;;46.75;24.50;;;;;;;;;;5050695;28;20403;-80
2021/12/18 13:35:22;;;;;;;45.80;25.30;;;;;;;;;;5033136;28;20034;-80
2021/12/18 13:37:58;;;;;;;48.22;26.98;;;;;;;;;;5036378;28;20026;-80
2021/12/18 13:40:24;;;;;;;45.28;24.60;;;;;;;;;;5058043;28;20112;-80
2021/12/18 13:43:08;;;;;;;45.55;24.98;;;;;;;;;;5052143;28;20025;-80
2021/12/18 13:45:47;;;;;;;46.15;25.23;;;;;;;;;;5048916;28;20033;-79
2021/12/18 13:48:13;;;;;;;46.08;24.20;;;;;;;;;;5049354;28;20039;-79
2021/12/18 13:50:39;;;;;;;48.17;25.80;;;;;;;;;;5051723;28;20060;-79
2021/12/18 13:53:06;;;;;;;47.72;25.42;;;;;;;;;;5049319;28;20392;-80
2021/12/18 13:55:34;;;;;;;70.03;36.15;;;;;;;;;;5049056;28;20934;-79
2021/12/18 13:58:05;;;;;;;57.28;29.48;;;;;;;;;;5051338;28;20743;-78
2021/12/18 14:00:49;;;;;;;49.88;26.42;;;;;;;;;;5057423;28;20037;-79
2021/12/18 14:03:23;;;;;;;47.63;25.80;;;;;;;;;;5066938;28;20036;-79
2021/12/18 14:05:50;;;;;;;45.25;24.63;;;;;;;;;;5049410;28;20047;-79
2021/12/18 14:08:17;;;;;;;56.88;26.10;;;;;;;;;;5050055;28;20380;-79
2021/12/18 14:10:43;;;;;;;54.63;27.63;;;;;;;;;;5035357;28;20037;-79
2021/12/18 14:13:09;;;;;;;51.10;28.85;;;;;;;;;;5035585;28;20033;-79
2021/12/18 14:15:35;;;;;;;51.65;29.65;;;;;;;;;;5050710;28;20095;-79
2021/12/18 14:18:01;;;;;;;57.50;31.65;;;;;;;;;;5051073;28;20031;-79
2021/12/18 14:20:28;;;;;;;53.13;28.30;;;;;;;;;;5039535;28;20034;-79
2021/12/18 14:22:58;;;;;;;56.85;29.40;;;;;;;;;;5035042;28;20464;-81
2021/12/18 14:25:24;;;;;;;55.75;27.98;;;;;;;;;;5042294;28;20029;-79
2021/12/18 14:27:52;;;;;;;50.33;27.52;;;;;;;;;;5031876;28;20033;-79
2021/12/18 14:30:24;;;;;;;54.22;28.70;;;;;;;;;;5050299;28;20028;-81
2021/12/18 14:32:54;;;;;;;53.10;28.00;;;;;;;;;;5043045;28;20055;-80
2021/12/18 14:35:21;;;;;;;53.47;28.80;;;;;;;;;;5041148;28;20112;-79
2021/12/18 14:37:53;;;;;;;49.65;25.95;;;;;;;;;;5053136;28;20796;-79
2021/12/18 14:40:23;;;;;;;46.60;24.92;;;;;;;;;;5035906;28;20071;-79
2021/12/18 14:42:55;;;;;;;51.88;27.40;;;;;;;;;;5047327;28;20037;-80
2021/12/18 14:45:26;;;;;;;50.17;26.50;;;;;;;;;;5051438;28;20055;-80
2021/12/18 14:47:53;;;;;;;50.63;25.75;;;;;;;;;;5053849;28;20032;-80
2021/12/18 14:50:19;;;;;;;47.33;24.30;;;;;;;;;;5050435;28;20053;-80
2021/12/18 14:52:53;;;;;;;48.25;26.52;;;;;;;;;;5062369;28;20043;-80
2021/12/18 14:55:21;;;;;;;50.28;26.58;;;;;;;;;;5052709;28;20390;-80
2021/12/18 14:57:54;;;;;;;48.35;25.63;;;;;;;;;;5050985;28;20040;-80
2021/12/18 15:00:28;;;;;;;48.83;24.92;;;;;;;;;;5051462;28;20029;-80
2021/12/18 15:02:54;;;;;;;51.67;26.15;;;;;;;;;;5049833;28;20040;-79